Time;durP1;ratioP1;P1;durP2;ratioP2;P2;SDS_P1;SDS_P2;PMS_P1;PMS_P2;Temp;Humidity;BMP_temperature;BMP_pressure;BME280_temperature;BME280_humidity;BME280_pressure;Samples;Min_cycle;Max_cycle;Signal;HPM_P1;HPM_P2
2021/12/29 00:00:45;;;;;;;3.97;1.20;;;10.00;99.90;;;;;;4973627;28;20220;-53
2021/12/29 00:03:10;;;;;;;2.77;1.43;;;10.20;99.90;;;;;;4973515;28;20559;-53
2021/12/29 00:05:36;;;;;;;3.70;1.33;;;9.80;99.90;;;;;;4973063;28;20563;-53
2021/12/29 00:08:02;;;;;;;2.57;1.00;;;10.20;99.90;;;;;;4973791;28;20431;-53
2021/12/29 00:10:29;;;;;;;1.73;1.27;;;10.10;99.90;;;;;;4973692;28;20443;-52
2021/12/29 00:12:56;;;;;;;1.95;1.20;;;10.20;99.90;;;;;;4973087;28;20185;-53
2021/12/29 00:15:27;;;;;;;1.02;0.70;;;10.10;99.90;;;;;;4973280;28;20185;-53
2021/12/29 00:17:54;;;;;;;2.88;1.00;;;10.20;99.90;;;;;;4972917;28;20199;-53
2021/12/29 00:20:28;;;;;;;3.80;1.10;;;10.00;99.90;;;;;;4972736;28;20216;-53
2021/12/29 00:22:54;;;;;;;2.72;1.10;;;10.00;99.90;;;;;;4973389;28;20196;-52
2021/12/29 00:25:20;;;;;;;1.88;0.90;;;10.00;99.90;;;;;;4983590;28;20180;-53
2021/12/29 00:27:45;;;;;;;3.80;0.87;;;10.00;99.90;;;;;;4972547;28;20224;-53
2021/12/29 00:30:13;;;;;;;1.03;0.90;;;10.30;99.90;;;;;;4972912;28;20740;-51
2021/12/29 00:32:39;;;;;;;1.77;0.90;;;10.10;99.90;;;;;;4973091;28;20534;-51
2021/12/29 00:35:08;;;;;;;2.17;1.00;;;9.50;99.90;;;;;;4971236;28;20682;-51
2021/12/29 00:37:34;;;;;;;1.10;0.70;;;10.00;99.90;;;;;;4972520;28;20442;-51
2021/12/29 00:39:59;;;;;;;1.93;1.13;;;10.10;99.90;;;;;;4972573;28;20212;-51
2021/12/29 00:42:25;;;;;;;1.23;0.90;;;10.30;99.90;;;;;;4976090;28;20519;-51
2021/12/29 00:44:51;;;;;;;2.30;0.73;;;10.40;99.90;;;;;;4971908;28;20639;-52
2021/12/29 00:47:18;;;;;;;2.93;1.07;;;10.20;99.90;;;;;;4972566;28;20519;-52
2021/12/29 00:49:46;;;;;;;2.33;0.80;;;10.10;99.90;;;;;;4972189;28;20463;-52
2021/12/29 00:52:12;;;;;;;1.60;0.80;;;10.10;99.90;;;;;;4972864;28;20216;-52
2021/12/29 00:54:40;;;;;;;2.28;0.90;;;9.90;99.90;;;;;;4972687;28;20192;-52
2021/12/29 00:57:06;;;;;;;2.17;0.90;;;10.00;99.90;;;;;;4976476;28;20184;-52
2021/12/29 00:59:32;;;;;;;2.73;0.80;;;10.00;99.90;;;;;;4983695;28;20259;-52
2021/12/29 01:01:58;;;;;;;4.13;1.07;;;9.80;99.90;;;;;;4972175;28;20188;-52
2021/12/29 01:04:25;;;;;;;1.63;0.82;;;9.90;99.90;;;;;;4972405;28;20476;-52
2021/12/29 01:06:52;;;;;;;1.50;0.90;;;9.90;99.90;;;;;;4971766;28;20195;-52
2021/12/29 01:09:18;;;;;;;2.55;0.88;;;9.80;99.90;;;;;;4972280;28;20217;-51
2021/12/29 01:11:44;;;;;;;0.80;0.70;;;10.10;99.90;;;;;;4971859;28;20239;-52
2021/12/29 01:14:10;;;;;;;1.00;0.80;;;9.70;99.90;;;;;;4972197;28;20937;-51
2021/12/29 01:16:37;;;;;;;1.43;0.90;;;9.50;99.90;;;;;;4975902;28;20197;-52
2021/12/29 01:19:12;;;;;;;1.70;0.70;;;9.70;99.90;;;;;;4971586;28;20467;-52
2021/12/29 01:21:41;;;;;;;0.98;0.73;;;10.10;99.90;;;;;;4972446;28;20353;-52
2021/12/29 01:24:08;;;;;;;1.00;0.65;;;10.00;99.90;;;;;;4972447;28;20180;-51
2021/12/29 01:26:34;;;;;;;1.30;0.75;;;10.10;99.90;;;;;;4971792;28;20267;-52
2021/12/29 01:29:00;;;;;;;2.78;0.90;;;9.80;99.90;;;;;;4971854;28;20710;-52
2021/12/29 01:31:25;;;;;;;1.13;0.63;;;9.90;99.90;;;;;;4972270;28;20220;-51
2021/12/29 01:33:51;;;;;;;1.77;0.80;;;9.90;99.90;;;;;;4978894;28;20541;-52
2021/12/29 01:36:17;;;;;;;1.07;0.60;;;9.90;99.90;;;;;;4971533;28;20180;-51
2021/12/29 01:38:43;;;;;;;3.87;0.67;;;9.40;99.90;;;;;;4970909;28;20604;-53
2021/12/29 01:41:08;;;;;;;1.67;0.80;;;9.90;99.90;;;;;;4971429;28;20192;-53
2021/12/29 01:43:34;;;;;;;1.63;0.70;;;9.70;99.90;;;;;;4971382;28;20214;-52
2021/12/29 01:46:00;;;;;;;1.67;1.00;;;10.00;99.90;;;;;;4971810;28;20193;-52
2021/12/29 01:48:26;;;;;;;1.80;0.73;;;10.20;99.90;;;;;;4971655;28;20559;-52
2021/12/29 01:50:52;;;;;;;1.03;0.60;;;10.00;99.90;;;;;;4975825;28;20215;-52
2021/12/29 01:53:25;;;;;;;1.27;0.60;;;10.10;99.90;;;;;;4971925;28;20523;-52
2021/12/29 01:55:51;;;;;;;1.63;0.80;;;10.30;99.90;;;;;;4971585;28;20649;-52
2021/12/29 01:58:19;;;;;;;1.08;0.70;;;10.00;99.90;;;;;;4977064;28;20204;-52
2021/12/29 02:00:45;;;;;;;2.88;0.80;;;10.10;99.90;;;;;;4971225;28;20211;-52
2021/12/29 02:03:10;;;;;;;4.33;0.80;;;10.30;99.90;;;;;;4971817;28;20203;-52
2021/12/29 02:05:37;;;;;;;1.00;0.60;;;10.00;99.90;;;;;;4971749;28;20531;-51
2021/12/29 02:08:07;;;;;;;2.00;1.08;;;10.20;99.90;;;;;;4976695;28;20216;-52
2021/12/29 02:10:41;;;;;;;3.13;0.77;;;10.30;99.90;;;;;;4971476;28;20659;-53
2021/12/29 02:13:08;;;;;;;0.80;0.57;;;10.40;99.90;;;;;;4971239;28;20201;-53
2021/12/29 02:15:34;;;;;;;1.55;0.65;;;10.10;99.90;;;;;;4971390;28;20662;-52
2021/12/29 02:18:00;;;;;;;0.90;0.67;;;10.20;99.90;;;;;;4970986;28;20185;-52
2021/12/29 02:20:27;;;;;;;1.07;0.80;;;9.60;99.90;;;;;;4970232;28;20212;-52
2021/12/29 02:23:11;;;;;;;1.00;0.60;;;10.20;99.90;;;;;;4973741;28;20206;-53
2021/12/29 02:25:48;;;;;;;2.95;1.23;;;10.10;99.90;;;;;;4972483;28;20176;-52
2021/12/29 02:28:23;;;;;;;0.93;0.65;;;10.50;99.90;;;;;;4986029;28;20236;-52
2021/12/29 02:30:50;;;;;;;0.70;0.60;;;10.30;99.90;;;;;;4971548;28;20275;-53
2021/12/29 02:33:16;;;;;;;2.67;0.68;;;10.10;99.90;;;;;;4971313;28;20617;-53
2021/12/29 02:35:43;;;;;;;0.88;0.60;;;10.20;99.90;;;;;;4971212;28;20198;-53
2021/12/29 02:38:27;;;;;;;1.60;0.60;;;10.30;99.90;;;;;;4970186;28;20251;-53
2021/12/29 02:40:59;;;;;;;0.60;0.55;;;10.40;99.90;;;;;;4981203;28;20293;-53
2021/12/29 02:43:25;;;;;;;1.98;0.70;;;10.30;99.90;;;;;;4971249;28;20208;-52
2021/12/29 02:45:58;;;;;;;1.98;0.60;;;10.40;99.90;;;;;;4971521;28;20182;-53
2021/12/29 02:48:29;;;;;;;2.63;0.65;;;10.40;99.90;;;;;;4971252;28;20197;-53
2021/12/29 02:50:56;;;;;;;0.80;0.60;;;10.20;99.90;;;;;;4970765;28;20912;-52
2021/12/29 02:53:24;;;;;;;0.60;0.55;;;10.20;99.90;;;;;;4971354;28;20200;-53
2021/12/29 02:55:51;;;;;;;0.88;0.50;;;10.20;99.90;;;;;;4971027;28;20220;-52
2021/12/29 02:58:16;;;;;;;1.52;0.57;;;10.30;99.90;;;;;;4970853;28;20219;-53
2021/12/29 03:00:42;;;;;;;1.40;0.50;;;10.30;99.90;;;;;;4970713;28;20220;-53
2021/12/29 03:03:19;;;;;;;1.10;0.90;;;10.30;99.90;;;;;;4971215;28;20193;-53
2021/12/29 03:05:46;;;;;;;1.23;0.73;;;10.40;99.90;;;;;;4970622;28;21443;-53
2021/12/29 03:08:13;;;;;;;1.73;1.40;;;10.50;99.90;;;;;;4971167;28;20678;-53
2021/12/29 03:10:39;;;;;;;1.30;0.70;;;10.40;99.90;;;;;;4974471;28;20200;-53
2021/12/29 03:13:07;;;;;;;2.10;0.80;;;10.50;99.90;;;;;;4977233;28;20587;-52
2021/12/29 03:15:34;;;;;;;8.00;3.35;;;10.30;99.90;;;;;;4972005;28;20612;-53
2021/12/29 03:18:00;;;;;;;1.50;0.73;;;10.40;99.90;;;;;;4973781;28;20264;-53
2021/12/29 03:20:26;;;;;;;1.40;1.30;;;10.50;99.90;;;;;;4975463;28;20299;-53
2021/12/29 03:22:53;;;;;;;0.73;0.70;;;10.30;99.90;;;;;;4974469;28;20189;-53
2021/12/29 03:25:19;;;;;;;1.30;1.20;;;10.50;99.90;;;;;;4974271;28;20460;-53
2021/12/29 03:27:44;;;;;;;0.70;0.53;;;10.50;99.90;;;;;;4974135;28;20203;-53
2021/12/29 03:30:11;;;;;;;1.00;0.70;;;10.30;99.90;;;;;;4974171;28;20240;-53
2021/12/29 03:32:41;;;;;;;0.80;0.60;;;10.50;99.90;;;;;;4981115;28;20181;-53
2021/12/29 03:35:08;;;;;;;0.82;0.68;;;10.30;99.90;;;;;;4973809;28;20195;-52
2021/12/29 03:37:33;;;;;;;0.80;0.50;;;10.60;99.90;;;;;;4973716;28;20251;-53
2021/12/29 03:39:59;;;;;;;1.30;0.60;;;10.40;99.90;;;;;;4973944;28;20218;-53
2021/12/29 03:42:25;;;;;;;1.30;0.70;;;10.40;99.90;;;;;;4973483;28;20211;-53
2021/12/29 03:44:51;;;;;;;0.70;0.60;;;10.50;99.90;;;;;;4974201;28;20650;-53
2021/12/29 03:47:16;;;;;;;1.73;0.77;;;10.40;99.90;;;;;;4973889;28;20470;-53
2021/12/29 03:49:42;;;;;;;0.80;0.60;;;10.30;99.90;;;;;;4973970;28;20468;-53
2021/12/29 03:52:08;;;;;;;1.10;0.63;;;10.80;99.90;;;;;;4973801;28;20202;-52
2021/12/29 03:54:34;;;;;;;0.70;0.50;;;10.70;99.90;;;;;;4973873;28;20264;-53
2021/12/29 03:57:02;;;;;;;1.10;0.50;;;10.50;99.90;;;;;;4977099;28;20182;-53
2021/12/29 03:59:29;;;;;;;0.65;0.57;;;10.60;99.90;;;;;;4975934;28;20483;-53
2021/12/29 04:01:55;;;;;;;1.33;0.60;;;10.90;99.90;;;;;;4973752;28;20199;-53
2021/12/29 04:04:21;;;;;;;0.80;0.70;;;10.70;99.90;;;;;;4973185;28;20185;-53
2021/12/29 04:06:47;;;;;;;0.90;0.50;;;10.80;99.90;;;;;;4974071;28;20428;-53
2021/12/29 04:09:13;;;;;;;0.60;0.50;;;10.50;99.90;;;;;;4973410;28;20215;-53
2021/12/29 04:11:39;;;;;;;0.95;0.50;;;10.70;99.90;;;;;;4973011;28;20437;-53
2021/12/29 04:14:04;;;;;;;0.80;0.60;;;10.70;99.90;;;;;;4973552;28;20759;-53
2021/12/29 04:16:30;;;;;;;1.00;0.40;;;10.70;99.90;;;;;;4973276;28;20191;-53
2021/12/29 04:19:15;;;;;;;1.77;0.80;;;10.70;99.90;;;;;;4972527;28;20312;-53
2021/12/29 04:21:43;;;;;;;1.30;0.50;;;10.80;99.90;;;;;;4967290;28;20186;-53
2021/12/29 04:24:09;;;;;;;0.73;0.60;;;10.60;99.90;;;;;;4973432;28;20560;-53
2021/12/29 04:26:38;;;;;;;0.60;0.55;;;10.70;99.90;;;;;;4973204;28;20185;-53
2021/12/29 04:29:06;;;;;;;1.00;0.60;;;10.90;99.90;;;;;;4973044;28;20193;-53
2021/12/29 04:31:32;;;;;;;0.60;0.40;;;10.70;99.90;;;;;;4973203;28;20320;-52
2021/12/29 04:33:58;;;;;;;1.37;0.50;;;10.80;99.90;;;;;;4972844;28;20271;-53
2021/12/29 04:36:24;;;;;;;0.80;0.57;;;10.70;99.90;;;;;;4972280;28;20455;-53
2021/12/29 04:38:54;;;;;;;0.80;0.70;;;10.70;99.90;;;;;;4974649;28;20457;-53
2021/12/29 04:41:21;;;;;;;1.10;0.55;;;10.70;99.90;;;;;;4976963;28;20941;-53
2021/12/29 04:43:47;;;;;;;0.70;0.60;;;10.50;99.90;;;;;;4972225;28;20231;-53
2021/12/29 04:46:17;;;;;;;0.70;0.70;;;10.40;99.90;;;;;;4972906;28;20185;-53
2021/12/29 04:48:50;;;;;;;2.55;0.50;;;10.40;99.90;;;;;;4972490;28;20196;-53
2021/12/29 04:51:23;;;;;;;2.13;0.77;;;10.00;99.90;;;;;;4972217;28;20192;-53
2021/12/29 04:53:50;;;;;;;0.73;0.52;;;10.10;99.90;;;;;;4972906;28;20565;-53
2021/12/29 04:56:16;;;;;;;0.90;0.70;;;10.20;99.90;;;;;;4973023;28;20263;-53
2021/12/29 04:58:42;;;;;;;2.10;0.70;;;10.10;99.90;;;;;;4971512;28;20685;-53
2021/12/29 05:01:08;;;;;;;1.45;0.60;;;10.00;99.90;;;;;;4972427;28;20261;-53
2021/12/29 05:03:37;;;;;;;1.90;0.80;;;10.10;99.90;;;;;;4972659;28;20193;-53
2021/12/29 05:08:32;;;;;;;1.17;0.70;;;9.90;99.90;;;;;;4972236;28;20209;-53
2021/12/29 05:11:06;;;;;;;1.33;1.03;;;9.80;99.90;;;;;;4972638;28;20296;-52
2021/12/29 05:13:35;;;;;;;1.98;1.48;;;10.00;99.90;;;;;;4979002;28;20190;-53
2021/12/29 05:16:01;;;;;;;1.77;0.90;;;9.90;99.90;;;;;;4971972;28;20201;-53
2021/12/29 05:18:30;;;;;;;1.27;1.07;;;9.90;99.90;;;;;;4971683;28;20204;-53
2021/12/29 05:20:57;;;;;;;1.10;1.00;;;9.80;99.90;;;;;;4972190;28;20510;-53
2021/12/29 05:23:24;;;;;;;1.05;0.75;;;9.90;99.90;;;;;;4971561;28;20188;-52
2021/12/29 05:25:50;;;;;;;2.35;1.08;;;9.80;99.90;;;;;;4971812;28;20197;-53
2021/12/29 05:28:19;;;;;;;1.55;0.98;;;10.00;99.90;;;;;;4983849;28;20670;-52
2021/12/29 05:30:47;;;;;;;1.95;1.00;;;9.90;99.90;;;;;;4972663;28;20279;-52
2021/12/29 05:33:13;;;;;;;1.83;1.48;;;10.00;99.90;;;;;;4971681;28;20188;-53
2021/12/29 05:35:39;;;;;;;1.23;0.80;;;10.10;99.90;;;;;;4971526;28;20720;-53
2021/12/29 05:38:05;;;;;;;3.50;0.97;;;10.00;99.90;;;;;;4971399;28;20188;-53
2021/12/29 05:40:30;;;;;;;1.53;1.10;;;9.60;99.90;;;;;;4971565;28;20216;-53
2021/12/29 05:42:57;;;;;;;2.97;1.10;;;9.90;99.90;;;;;;4970912;28;20474;-53
2021/12/29 05:45:25;;;;;;;2.00;1.00;;;9.70;99.90;;;;;;4971912;28;20291;-53
2021/12/29 05:47:51;;;;;;;2.35;0.88;;;9.70;99.90;;;;;;4972394;28;20181;-53
2021/12/29 05:50:19;;;;;;;2.72;0.90;;;10.00;99.90;;;;;;4971468;28;20192;-52
2021/12/29 05:52:46;;;;;;;2.17;0.90;;;10.00;99.90;;;;;;4971587;28;20228;-53
2021/12/29 05:55:13;;;;;;;1.60;0.90;;;9.80;99.90;;;;;;4971607;28;20190;-53
2021/12/29 05:57:39;;;;;;;2.80;1.33;;;10.00;99.90;;;;;;4970816;28;20279;-53
2021/12/29 06:00:09;;;;;;;1.92;0.85;;;10.20;99.90;;;;;;4971278;28;20212;-53
2021/12/29 06:02:35;;;;;;;1.25;0.90;;;10.00;99.90;;;;;;4971580;28;20181;-53
2021/12/29 06:05:01;;;;;;;3.37;1.03;;;10.10;99.90;;;;;;4973226;28;20631;-53
2021/12/29 06:07:27;;;;;;;1.05;0.90;;;9.90;99.90;;;;;;4970874;28;20748;-53
2021/12/29 06:09:53;;;;;;;1.63;1.37;;;9.90;99.90;;;;;;4970869;28;20288;-53
2021/12/29 06:12:18;;;;;;;1.57;1.07;;;9.70;99.90;;;;;;4974617;28;20193;-53
2021/12/29 06:14:44;;;;;;;1.67;1.10;;;9.60;99.90;;;;;;4971343;28;20285;-53
2021/12/29 06:17:11;;;;;;;2.17;1.10;;;10.00;99.90;;;;;;4971229;28;20185;-52
2021/12/29 06:19:37;;;;;;;2.00;0.98;;;9.70;99.90;;;;;;4970866;28;20291;-53
2021/12/29 06:22:04;;;;;;;1.40;1.23;;;9.60;99.90;;;;;;4971980;28;20199;-53
2021/12/29 06:24:30;;;;;;;3.25;1.60;;;9.60;99.90;;;;;;4971188;28;20459;-53
2021/12/29 06:26:55;;;;;;;1.83;1.27;;;9.70;99.90;;;;;;4970173;28;20185;-52
2021/12/29 06:29:21;;;;;;;2.70;1.57;;;9.70;99.90;;;;;;4971753;28;20516;-53
2021/12/29 06:31:48;;;;;;;1.40;1.30;;;9.70;99.90;;;;;;4971020;28;20520;-53
2021/12/29 06:34:13;;;;;;;1.20;0.98;;;9.90;99.90;;;;;;4971100;28;20217;-53
2021/12/29 06:36:40;;;;;;;1.93;1.30;;;9.50;99.90;;;;;;4973962;28;20654;-51
2021/12/29 06:39:06;;;;;;;1.55;1.38;;;9.30;99.90;;;;;;4972796;28;20224;-53
2021/12/29 06:41:32;;;;;;;2.05;1.30;;;9.70;99.90;;;;;;4970503;28;20709;-53
2021/12/29 06:43:58;;;;;;;1.27;1.17;;;9.40;99.90;;;;;;4972574;28;20284;-53
2021/12/29 06:46:23;;;;;;;1.77;1.00;;;9.50;99.90;;;;;;4975081;28;20256;-53
2021/12/29 06:48:49;;;;;;;3.37;1.80;;;9.70;99.90;;;;;;4974460;28;20298;-52
2021/12/29 06:51:14;;;;;;;2.93;1.20;;;9.40;99.90;;;;;;4977526;28;20180;-51
2021/12/29 06:53:40;;;;;;;4.80;1.63;;;9.40;99.90;;;;;;4989514;28;20192;-52
2021/12/29 06:56:06;;;;;;;1.57;1.17;;;9.30;99.90;;;;;;4975208;28;20185;-52
2021/12/29 06:58:33;;;;;;;1.90;1.00;;;9.40;99.90;;;;;;4988885;28;20627;-51
2021/12/29 07:00:59;;;;;;;1.45;1.35;;;9.30;99.90;;;;;;4974610;28;20221;-52
2021/12/29 07:03:26;;;;;;;1.75;0.98;;;9.50;99.90;;;;;;4974484;28;20180;-52
2021/12/29 07:05:54;;;;;;;2.50;1.48;;;9.30;99.90;;;;;;4974115;28;20180;-52
2021/12/29 07:08:20;;;;;;;2.97;1.20;;;9.60;99.90;;;;;;4982711;28;20200;-52
2021/12/29 07:10:46;;;;;;;4.45;2.53;;;9.70;99.90;;;;;;4974448;28;20184;-53
2021/12/29 07:13:12;;;;;;;3.23;1.60;;;9.80;99.90;;;;;;4974652;28;20200;-53
2021/12/29 07:15:37;;;;;;;1.30;1.10;;;9.90;99.90;;;;;;4974452;28;20865;-53
2021/12/29 07:18:04;;;;;;;3.03;1.17;;;9.60;99.90;;;;;;4974170;28;20189;-53
2021/12/29 07:20:29;;;;;;;1.70;1.35;;;9.50;99.90;;;;;;4974002;28;20216;-53
2021/12/29 07:22:55;;;;;;;2.40;2.07;;;9.60;99.90;;;;;;4974457;28;20650;-53
2021/12/29 07:25:22;;;;;;;3.90;1.30;;;10.00;99.90;;;;;;4974193;28;20463;-53
2021/12/29 07:27:48;;;;;;;2.67;1.10;;;10.00;99.90;;;;;;4973634;28;20440;-53
2021/12/29 07:30:14;;;;;;;5.30;1.85;;;9.90;99.90;;;;;;4983762;28;20309;-53
2021/12/29 07:32:40;;;;;;;2.83;1.50;;;10.00;99.90;;;;;;4974235;28;20720;-53
2021/12/29 07:35:06;;;;;;;3.00;1.30;;;10.30;99.90;;;;;;4973864;28;20227;-53
2021/12/29 07:37:32;;;;;;;2.67;1.45;;;9.90;99.90;;;;;;4973980;28;20549;-53
2021/12/29 07:39:58;;;;;;;1.63;1.53;;;9.90;99.90;;;;;;4973607;28;20212;-53
2021/12/29 07:42:23;;;;;;;1.57;1.47;;;9.70;99.90;;;;;;4980487;28;21218;-53
2021/12/29 07:44:50;;;;;;;1.93;1.27;;;9.70;99.90;;;;;;4976254;28;20196;-53
2021/12/29 07:47:17;;;;;;;1.95;0.90;;;9.80;99.90;;;;;;4974245;28;20173;-53
2021/12/29 07:49:43;;;;;;;1.98;0.85;;;10.00;99.90;;;;;;4973521;28;20204;-53
2021/12/29 07:52:09;;;;;;;2.17;0.80;;;10.10;99.90;;;;;;4973293;28;20193;-53
2021/12/29 07:54:34;;;;;;;1.50;1.00;;;10.00;99.90;;;;;;4971873;28;20203;-53
2021/12/29 07:57:00;;;;;;;1.17;0.90;;;10.20;99.90;;;;;;4972739;28;20457;-53
2021/12/29 07:59:25;;;;;;;2.20;0.90;;;10.10;99.90;;;;;;4973089;28;20223;-53
2021/12/29 08:01:51;;;;;;;2.60;1.30;;;9.90;99.90;;;;;;4973975;28;20185;-52
2021/12/29 08:04:21;;;;;;;1.57;1.33;;;10.10;99.90;;;;;;4999069;28;20188;-52
2021/12/29 08:06:47;;;;;;;1.55;1.25;;;9.90;99.90;;;;;;4982329;28;20195;-52
2021/12/29 08:09:13;;;;;;;2.43;1.80;;;9.90;99.90;;;;;;4973306;28;20209;-52
2021/12/29 08:11:40;;;;;;;1.98;1.13;;;10.00;99.90;;;;;;4972783;28;20431;-52
2021/12/29 08:14:06;;;;;;;3.63;1.75;;;10.00;99.90;;;;;;4973556;28;20250;-52
2021/12/29 08:16:32;;;;;;;3.28;1.38;;;10.20;99.90;;;;;;4973438;28;20192;-52
2021/12/29 08:18:58;;;;;;;1.53;1.20;;;10.00;99.90;;;;;;4972826;28;20205;-52
2021/12/29 08:21:23;;;;;;;1.80;1.30;;;10.10;99.90;;;;;;4974508;28;20235;-53
2021/12/29 08:23:49;;;;;;;1.60;1.10;;;9.80;99.90;;;;;;4971902;28;20192;-53
2021/12/29 08:26:15;;;;;;;1.80;1.50;;;9.60;99.90;;;;;;4973143;28;20614;-53
2021/12/29 08:28:40;;;;;;;2.07;1.40;;;10.00;99.90;;;;;;4985561;28;20615;-52
2021/12/29 08:31:06;;;;;;;1.20;1.10;;;9.90;99.90;;;;;;4973177;28;20830;-52
2021/12/29 08:33:33;;;;;;;1.57;0.93;;;9.90;99.90;;;;;;4972876;28;20185;-53
2021/12/29 08:35:59;;;;;;;12.73;8.32;;;9.70;99.90;;;;;;4972379;28;20184;-52
2021/12/29 08:38:25;;;;;;;1.17;0.73;;;9.80;99.90;;;;;;4982114;28;20511;-52
2021/12/29 08:40:51;;;;;;;1.83;1.10;;;10.20;99.90;;;;;;4972537;28;20707;-53
2021/12/29 08:43:18;;;;;;;3.00;1.02;;;10.10;99.90;;;;;;4971672;28;20194;-53
2021/12/29 08:45:46;;;;;;;3.80;2.08;;;10.20;99.90;;;;;;4972473;28;20669;-53
2021/12/29 08:48:12;;;;;;;1.35;1.13;;;10.60;99.90;;;;;;4972146;28;20582;-53
2021/12/29 08:50:38;;;;;;;1.77;0.90;;;10.50;99.90;;;;;;4972470;28;20188;-52
2021/12/29 08:53:06;;;;;;;1.63;1.45;;;10.70;99.90;;;;;;4971856;28;20685;-51
2021/12/29 08:55:33;;;;;;;1.00;0.80;;;10.10;99.90;;;;;;4990968;28;20482;-52
2021/12/29 08:57:59;;;;;;;1.50;0.80;;;11.00;99.90;;;;;;4964353;28;20193;-53
2021/12/29 09:00:25;;;;;;;2.60;1.10;;;10.80;99.90;;;;;;4972361;28;20206;-52
2021/12/29 09:02:50;;;;;;;1.20;1.10;;;10.70;99.90;;;;;;4987303;28;20494;-52
2021/12/29 09:05:18;;;;;;;1.20;1.10;;;10.80;99.90;;;;;;4971984;28;20519;-52
2021/12/29 09:07:46;;;;;;;1.92;1.55;;;10.90;99.90;;;;;;4971404;28;20192;-52
2021/12/29 09:10:15;;;;;;;1.20;1.02;;;10.90;99.90;;;;;;4972277;28;20208;-52
2021/12/29 09:12:41;;;;;;;2.78;1.40;;;11.00;99.90;;;;;;4970585;28;20218;-52
2021/12/29 09:15:08;;;;;;;1.17;0.90;;;11.20;99.90;;;;;;4972064;28;20217;-52
2021/12/29 09:17:34;;;;;;;1.33;1.00;;;11.00;99.90;;;;;;4971994;28;20433;-52
2021/12/29 09:20:01;;;;;;;1.60;0.95;;;11.20;99.90;;;;;;4971435;28;20222;-52
2021/12/29 09:22:27;;;;;;;2.25;0.90;;;11.00;99.90;;;;;;4972195;28;20215;-52
2021/12/29 09:24:53;;;;;;;1.88;1.00;;;10.80;99.90;;;;;;4971593;28;20216;-53
2021/12/29 09:27:19;;;;;;;1.33;1.00;;;11.30;99.90;;;;;;4970737;28;20183;-53
2021/12/29 09:29:45;;;;;;;1.20;0.97;;;11.30;99.90;;;;;;4976755;28;20580;-53
2021/12/29 09:32:11;;;;;;;2.40;0.95;;;11.30;99.90;;;;;;4972026;28;20476;-52
2021/12/29 09:34:37;;;;;;;1.17;0.80;;;11.20;99.90;;;;;;4971570;28;20668;-52
2021/12/29 09:37:05;;;;;;;1.75;0.80;;;11.20;99.90;;;;;;4970592;28;20511;-52
2021/12/29 09:39:32;;;;;;;2.25;0.82;;;11.40;99.90;;;;;;4971474;28;20656;-53
2021/12/29 09:42:01;;;;;;;1.48;0.88;;;11.20;99.90;;;;;;4971344;28;20182;-53
2021/12/29 09:44:27;;;;;;;1.27;1.00;;;11.50;99.90;;;;;;4971684;28;20684;-54
2021/12/29 09:46:54;;;;;;;1.90;1.07;;;11.30;99.90;;;;;;4998687;28;20222;-53
2021/12/29 09:49:21;;;;;;;1.63;1.20;;;11.50;99.90;;;;;;4971194;28;20465;-51
2021/12/29 09:51:49;;;;;;;1.10;1.00;;;11.50;99.90;;;;;;4970815;28;20508;-52
2021/12/29 09:54:14;;;;;;;1.55;1.20;;;11.70;99.90;;;;;;4971904;28;20187;-52
2021/12/29 09:56:40;;;;;;;1.47;0.90;;;11.60;99.90;;;;;;4985721;28;20189;-52
2021/12/29 09:59:06;;;;;;;2.20;1.27;;;11.70;99.90;;;;;;4971483;28;20217;-52
2021/12/29 10:01:32;;;;;;;2.10;1.77;;;11.80;99.90;;;;;;4966443;28;20455;-53
2021/12/29 10:03:58;;;;;;;7.17;2.77;;;12.10;99.90;;;;;;4990238;28;20408;-53
2021/12/29 10:06:24;;;;;;;3.53;2.35;;;12.00;99.90;;;;;;4969046;28;20191;-54
2021/12/29 10:08:50;;;;;;;2.30;1.27;;;11.60;99.90;;;;;;4965148;28;20746;-53
2021/12/29 10:11:36;;;;;;;6.13;2.10;;;11.70;99.90;;;;;;4988372;28;20498;-53
2021/12/29 10:14:10;;;;;;;2.25;1.10;;;12.10;99.90;;;;;;4980485;28;20468;-53
2021/12/29 10:16:36;;;;;;;1.35;1.15;;;11.90;99.90;;;;;;4980073;28;20202;-53
2021/12/29 10:19:12;;;;;;;2.03;1.23;;;11.90;99.90;;;;;;4991053;28;20231;-53
2021/12/29 10:21:45;;;;;;;1.23;1.13;;;11.90;99.90;;;;;;4971460;28;20213;-53
2021/12/29 10:24:12;;;;;;;0.82;0.82;;;11.80;99.90;;;;;;4972422;28;20206;-52
2021/12/29 10:26:45;;;;;;;1.52;1.30;;;11.80;99.90;;;;;;4972766;28;20209;-51
2021/12/29 10:29:13;;;;;;;2.97;2.00;;;11.70;99.90;;;;;;4994446;28;20560;-53
2021/12/29 10:31:43;;;;;;;3.30;1.73;;;11.80;99.90;;;;;;4984251;28;20764;-53
2021/12/29 10:34:17;;;;;;;1.80;1.20;;;11.80;99.90;;;;;;4974807;28;20197;-53
2021/12/29 10:36:52;;;;;;;1.25;0.90;;;11.70;99.90;;;;;;4975164;28;20265;-52
2021/12/29 10:39:31;;;;;;;2.13;1.20;;;11.90;99.90;;;;;;4974667;28;20373;-52
2021/12/29 10:42:23;;;;;;;2.72;1.45;;;11.80;99.90;;;;;;4978536;28;20181;-52
2021/12/29 10:44:56;;;;;;;2.38;1.40;;;12.00;99.90;;;;;;4977146;28;20208;-52
2021/12/29 10:47:22;;;;;;;2.35;1.40;;;11.70;99.90;;;;;;4974881;28;20186;-53
2021/12/29 10:50:19;;;;;;;3.57;1.47;;;11.80;99.90;;;;;;4974638;28;20558;-53
2021/12/29 10:52:50;;;;;;;3.22;1.95;;;12.10;99.90;;;;;;4961164;28;20549;-53
2021/12/29 10:55:18;;;;;;;1.50;1.40;;;11.90;99.90;;;;;;4974540;28;20555;-53
2021/12/29 10:57:45;;;;;;;1.83;1.05;;;12.00;99.90;;;;;;4980685;28;20190;-53
2021/12/29 11:00:19;;;;;;;3.35;1.20;;;12.20;99.90;;;;;;4974624;28;20212;-53
2021/12/29 11:02:48;;;;;;;2.28;1.30;;;12.20;99.90;;;;;;4972111;28;20263;-51
2021/12/29 11:05:13;;;;;;;2.55;1.38;;;12.10;99.90;;;;;;4974023;28;20193;-52
2021/12/29 11:07:41;;;;;;;2.30;1.57;;;12.00;99.90;;;;;;4976629;28;20403;-52
2021/12/29 11:10:19;;;;;;;4.30;1.40;;;12.10;99.90;;;;;;4978628;28;20200;-52
2021/12/29 11:12:53;;;;;;;1.98;1.35;;;12.20;99.90;;;;;;4974673;28;20195;-52
2021/12/29 11:15:49;;;;;;;2.85;2.17;;;12.10;99.90;;;;;;4974377;28;20256;-52
2021/12/29 11:18:15;;;;;;;1.85;1.20;;;12.20;99.90;;;;;;4973290;28;20222;-52
2021/12/29 11:20:41;;;;;;;3.17;1.37;;;12.20;99.90;;;;;;4973471;28;20215;-52
2021/12/29 11:23:10;;;;;;;3.20;1.23;;;12.20;99.90;;;;;;4973919;28;20222;-53
2021/12/29 11:25:38;;;;;;;3.05;0.90;;;12.00;99.90;;;;;;4973754;28;20187;-51
2021/12/29 11:28:05;;;;;;;3.65;1.73;;;12.00;99.90;;;;;;4974401;28;20238;-51
2021/12/29 11:30:31;;;;;;;1.85;1.17;;;12.10;99.90;;;;;;4972963;28;20199;-53
2021/12/29 11:33:12;;;;;;;1.80;1.10;;;12.20;99.90;;;;;;4973636;28;20190;-53
2021/12/29 11:35:43;;;;;;;1.60;1.38;;;12.10;99.90;;;;;;4965318;28;20538;-52
2021/12/29 11:38:10;;;;;;;2.35;1.70;;;12.10;99.90;;;;;;4973458;28;20283;-54
2021/12/29 11:40:40;;;;;;;1.40;0.90;;;12.00;99.90;;;;;;4973769;28;20297;-53
2021/12/29 11:43:09;;;;;;;2.63;1.10;;;12.10;99.90;;;;;;4973051;28;20624;-54
2021/12/29 11:45:40;;;;;;;2.28;1.10;;;11.80;99.90;;;;;;4974773;28;20193;-53
2021/12/29 11:48:09;;;;;;;2.80;1.27;;;11.90;99.90;;;;;;4973500;28;20695;-53
2021/12/29 11:50:37;;;;;;;1.85;0.90;;;12.00;99.90;;;;;;4973682;28;20191;-52
2021/12/29 11:53:34;;;;;;;1.80;1.30;;;12.10;99.90;;;;;;4975511;28;20195;-53
2021/12/29 11:56:03;;;;;;;2.78;1.30;;;11.60;99.90;;;;;;4974027;28;20198;-53
2021/12/29 11:58:34;;;;;;;3.67;1.15;;;11.90;99.90;;;;;;4978843;28;20227;-51
2021/12/29 12:01:14;;;;;;;4.57;1.17;;;11.70;99.90;;;;;;4973311;28;20969;-52
2021/12/29 12:03:50;;;;;;;2.58;1.27;;;11.80;99.90;;;;;;4973221;28;20190;-52
2021/12/29 12:06:40;;;;;;;1.55;1.13;;;12.10;99.90;;;;;;4972787;28;20303;-53
2021/12/29 12:09:09;;;;;;;1.98;1.10;;;11.80;99.90;;;;;;4973056;28;20693;-53
2021/12/29 12:11:36;;;;;;;1.40;1.10;;;12.00;99.90;;;;;;4972946;28;20210;-52
2021/12/29 12:14:03;;;;;;;2.70;1.08;;;11.80;99.90;;;;;;4971653;28;20192;-53
2021/12/29 12:16:29;;;;;;;2.03;1.10;;;12.20;99.90;;;;;;4973010;28;20472;-53
2021/12/29 12:18:58;;;;;;;2.23;1.27;;;12.30;99.90;;;;;;4979797;28;20210;-53
2021/12/29 12:21:33;;;;;;;1.60;1.38;;;12.40;99.90;;;;;;4987353;28;20443;-53
2021/12/29 12:24:25;;;;;;;2.17;1.58;;;12.60;99.90;;;;;;4973315;28;20178;-52
2021/12/29 12:26:59;;;;;;;4.97;3.05;;;12.40;99.90;;;;;;4972811;28;20188;-54
2021/12/29 12:29:37;;;;;;;3.00;1.65;;;12.50;99.90;;;;;;4972736;28;20261;-54
2021/12/29 12:32:10;;;;;;;2.30;1.50;;;12.80;99.90;;;;;;4972914;28;20192;-52
2021/12/29 12:34:54;;;;;;;4.13;1.58;;;12.70;99.90;;;;;;4973348;28;20250;-53
2021/12/29 12:37:45;;;;;;;5.03;1.90;;;12.60;99.90;;;;;;4970361;28;20539;-52
2021/12/29 12:40:14;;;;;;;3.45;1.40;;;12.70;99.90;;;;;;4972534;28;20861;-51
2021/12/29 12:42:41;;;;;;;1.90;1.33;;;12.50;99.90;;;;;;4981272;28;20195;-54
2021/12/29 12:45:19;;;;;;;1.88;1.40;;;12.30;99.90;;;;;;4972499;28;20236;-54
2021/12/29 12:47:45;;;;;;;4.53;1.80;;;12.50;99.90;;;;;;4972320;28;20258;-52
2021/12/29 12:50:23;;;;;;;3.47;1.77;;;12.80;99.90;;;;;;4975111;28;20206;-52
2021/12/29 12:52:53;;;;;;;4.80;1.80;;;12.60;99.90;;;;;;4981997;28;20867;-53
2021/12/29 12:55:19;;;;;;;2.38;1.77;;;12.60;99.90;;;;;;4972861;28;20188;-52
2021/12/29 12:57:46;;;;;;;3.20;1.50;;;12.40;99.90;;;;;;4963813;28;20195;-53